METAR Data
IDs: Format: Raw Decoded Include TAF

Data at: 1215 UTC 15 Jul 2020

KDCM 151215Z AUTO 00000KT 10SM CLR 25/23 A3011 RMK AO2
KDCM 151155Z AUTO 00000KT 10SM CLR 24/23 A3011 RMK AO2
KDCM 151135Z AUTO 00000KT 10SM CLR 23/23 A3010 RMK AO2
KDCM 151115Z AUTO 03003KT 10SM CLR 23/23 A3009 RMK AO2
KDCM 151055Z AUTO 02003KT 10SM CLR 22/22 A3009 RMK AO2
KDCM 151035Z AUTO 00000KT 10SM CLR 23/23 A3008 RMK AO2
KDCM 151015Z AUTO 00000KT 10SM CLR 23/22 A3008 RMK AO2
KDCM 150955Z AUTO 00000KT 10SM CLR 23/22 A3007 RMK AO2
KDCM 150935Z AUTO 00000KT 10SM CLR 23/22 A3006 RMK AO2
KDCM 150915Z AUTO 36003KT 10SM CLR 23/22 A3006 RMK AO2
KDCM 150855Z AUTO 00000KT 10SM SCT080 24/22 A3006 RMK AO2
KDCM 150835Z AUTO 00000KT 10SM BKN080 24/22 A3006 RMK AO2
KDCM 150815Z AUTO 00000KT 10SM CLR 23/21 A3006 RMK AO2
KDCM 150755Z AUTO 00000KT 10SM CLR 24/21 A3006 RMK AO2
KDCM 150735Z AUTO 00000KT 10SM CLR 24/21 A3005 RMK AO2
KDCM 150715Z AUTO 00000KT 10SM CLR 24/21 A3004 RMK AO2
KDCM 150655Z AUTO 00000KT 10SM CLR 24/21 A3005 RMK AO2
KDCM 150635Z AUTO 00000KT 10SM SCT100 25/21 A3005 RMK AO2
KDCM 150615Z AUTO 00000KT 10SM SCT100 25/21 A3006 RMK AO2
KDCM 150555Z AUTO 00000KT 10SM SCT100 25/21 A3006 RMK AO2
KDCM 150535Z AUTO 00000KT 10SM CLR 25/21 A3006 RMK AO2
KDCM 150515Z AUTO 00000KT 10SM SCT120 25/21 A3007 RMK AO2
KDCM 150455Z AUTO 00000KT 10SM SCT090 SCT120 25/21 A3007 RMK AO2
KDCM 150435Z AUTO 00000KT 10SM SCT120 26/21 A3007 RMK AO2
KDCM 150415Z AUTO 00000KT 10SM SCT120 26/21 A3008 RMK AO2
KDCM 150355Z AUTO 00000KT 10SM SCT120 26/21 A3007 RMK AO2
KDCM 150335Z AUTO 00000KT 10SM CLR 26/21 A3007 RMK AO2
KDCM 150315Z AUTO 00000KT 10SM CLR 26/21 A3007 RMK AO2
KDCM 150255Z AUTO 00000KT 10SM CLR 27/21 A3006 RMK AO2
KDCM 150235Z AUTO 16003KT 10SM SCT120 27/20 A3006 RMK AO2
KDCM 150215Z AUTO 15003KT 10SM SCT090 BKN120 28/20 A3005 RMK AO2
KDCM 150155Z AUTO 00000KT 10SM BKN090 27/20 A3004 RMK AO2
KDCM 150135Z AUTO 00000KT 10SM BKN090 27/21 A3003 RMK AO2
KDCM 150115Z AUTO 00000KT 10SM SCT090 27/21 A3003 RMK AO2 LTG DSNT NE
KDCM 150055Z AUTO 00000KT 10SM SCT090 27/21 A3002 RMK AO2
KDCM 150035Z AUTO 00000KT 10SM CLR 28/22 A3002 RMK AO2 LTG DSNT NE
KDCM 150015Z AUTO 00000KT 10SM SCT085 28/22 A3002 RMK AO2 LTG DSNT SE
KDCM 142355Z AUTO 00000KT 10SM SCT085 30/22 A3002 RMK AO2
KDCM 142335Z AUTO 00000KT 10SM CLR 30/21 A3001 RMK AO2
KDCM 142315Z AUTO 00000KT 10SM CLR 31/20 A3001 RMK AO2
KDCM 142255Z AUTO 00000KT 10SM CLR 32/18 A3000 RMK AO2 LTG DSNT SE
KDCM 142235Z AUTO 00000KT 10SM SCT120 32/18 A3000 RMK AO2
KDCM 142215Z AUTO 00000KT 10SM SCT085 SCT120 32/18 A3000 RMK AO2
KDCM 142155Z AUTO 00000KT 10SM CLR 32/18 A3000 RMK AO2
KDCM 142135Z AUTO 18003KT 10SM SCT060 32/18 A3000 RMK AO2
KDCM 142115Z AUTO 20004KT 10SM SCT060 SCT070 31/20 A3000 RMK AO2 LTG DSNT SE
KDCM 142055Z AUTO 16008KT 090V190 10SM SCT050 SCT070 33/19 A3000 RMK AO2
KDCM 142035Z AUTO 16007KT 090V180 10SM CLR 33/18 A3000 RMK AO2
KDCM 142015Z AUTO 17005KT 10SM SCT060 31/20 A3000 RMK AO2
KDCM 141955Z AUTO 17004KT 10SM CLR 33/17 A3000 RMK AO2
KDCM 141935Z AUTO 05004KT 10SM CLR 33/18 A3000 RMK AO2
KDCM 141915Z AUTO 13005KT 10SM CLR 32/18 A3000 RMK AO2
KDCM 141855Z AUTO 35003KT 10SM CLR 33/18 A3000 RMK AO2
KDCM 141835Z AUTO 00000KT 10SM SCT100 32/18 A3001 RMK AO2
KDCM 141815Z AUTO 36004KT 10SM SCT100 32/19 A3001 RMK AO2 LTG DSNT SE
KDCM 141755Z AUTO 31005KT 10SM -RA SCT031 SCT049 BKN070 29/21 A3002 RMK AO2
KDCM 141735Z AUTO 14006KT 10SM SCT048 BKN060 OVC080 32/18 A3002 RMK AO2
KDCM 141715Z AUTO 11009KT 10SM SCT050 SCT060 32/20 A3002 RMK AO2
KDCM 141655Z AUTO 00000KT 10SM SCT050 32/18 A3003 RMK AO2
KDCM 141635Z AUTO 06003KT 10SM SCT050 BKN055 31/20 A3003 RMK AO2 LTG DSNT SE
KDCM 141615Z AUTO 10004KT 10SM CLR 31/20 A3003 RMK AO2
KDCM 141555Z AUTO 08004KT 10SM CLR 31/20 A3003 RMK AO2
KDCM 141535Z AUTO 07005KT 10SM CLR 31/20 A3003 RMK AO2 LTG DSNT SE
KDCM 141515Z AUTO 05003KT 10SM CLR 30/19 A3003 RMK AO2 LTG DSNT SE
KDCM 141455Z AUTO 06004KT 10SM CLR 30/19 A3003 RMK AO2
KDCM 141435Z AUTO 04003KT 10SM SCT060 28/19 A3003 RMK AO2
KDCM 141415Z AUTO 08003KT 10SM SCT048 BKN060 27/19 A3003 RMK AO2
KDCM 141355Z AUTO 07005KT 10SM BKN048 27/20 A3003 RMK AO2 LTG DSNT SE
KDCM 141335Z AUTO 06007KT 10SM SCT050 27/20 A3002 RMK AO2 LTG DSNT SE
KDCM 141315Z AUTO 04004KT 10SM BKN049 BKN060 26/20 A3002 RMK AO2 LTG DSNT SE
KDCM 141255Z AUTO 05004KT 10SM BKN049 BKN060 BKN090 26/21 A3002 RMK AO2 LTG DSNT SE
KDCM 141235Z AUTO 04006KT 10SM OVC049 25/20 A3001 RMK AO2
KDCM 141215Z AUTO 04004KT 10SM BKN049 OVC095 25/21 A3001 RMK AO2 LTG DSNT SE
KDCM 141155Z AUTO 03004KT 10SM SCT095 25/23 A3000 RMK AO2 LTG DSNT SE
KDCM 141135Z AUTO 03004KT 10SM CLR 23/23 A2999 RMK AO2 LTG DSNT SE
KDCM 141115Z AUTO 04003KT 10SM CLR 23/22 A2998 RMK AO2
KDCM 141055Z AUTO 00000KT 10SM SCT050 SCT070 SCT090 22/22 A2997 RMK AO2
KDCM 141035Z AUTO 03003KT 10SM SCT050 SCT070 BKN080 22/22 A2997 RMK AO2
KDCM 141015Z AUTO 00000KT 10SM SCT060 23/22 A2997 RMK AO2 LTG DSNT SE
KDCM 140955Z AUTO 00000KT 10SM SCT060 23/22 A2996 RMK AO2 LTG DSNT SE
KDCM 140935Z AUTO 01003KT 10SM CLR 23/22 A2995 RMK AO2
KDCM 140915Z AUTO 00000KT 10SM SCT060 23/22 A2995 RMK AO2 LTG DSNT SE
KDCM 140855Z AUTO 00000KT 10SM BKN050 BKN070 23/22 A2995 RMK AO2
KDCM 140835Z AUTO 35006KT 10SM OVC050 23/21 A2995 RMK AO2 LTG DSNT SE
KDCM 140815Z AUTO 00000KT 10SM BKN050 23/21 A2994 RMK AO2 LTG DSNT SE
KDCM 140735Z AUTO 00000KT 10SM BKN110 24/21 A2994 RMK AO2
KDCM 140715Z AUTO 00000KT 10SM OVC100 25/21 A2994 RMK AO2
KDCM 140655Z AUTO 00000KT 10SM OVC100 25/21 A2994 RMK AO2
KDCM 140635Z AUTO 25003KT 10SM OVC100 24/21 A2994 RMK AO2
KDCM 140615Z AUTO 25003KT 10SM OVC100 24/22 A2994 RMK AO2
KDCM 140555Z AUTO 00000KT 10SM SCT065 OVC090 25/21 A2995 RMK AO2 LTG DSNT SE
KDCM 140535Z AUTO 00000KT 10SM SCT065 SCT090 BKN110 25/21 A2995 RMK AO2 LTG DSNT SE
KDCM 140515Z AUTO 17003KT 10SM SCT065 SCT080 BKN120 25/21 A2995 RMK AO2
KDCM 140455Z AUTO 21003KT 10SM SCT065 SCT110 25/21 A2995 RMK AO2
KDCM 140435Z AUTO 17003KT 10SM SCT110 25/21 A2995 RMK AO2
KDCM 140415Z AUTO 14005KT 10SM SCT060 BKN110 25/21 A2995 RMK AO2
KDCM 140355Z AUTO 14004KT 10SM SCT120 25/21 A2995 RMK AO2
KDCM 140335Z AUTO 00000KT 10SM SCT065 SCT080 BKN120 25/21 A2994 RMK AO2
KDCM 140315Z AUTO 00000KT 10SM SCT065 BKN080 BKN090 25/21 A2994 RMK AO2
KDCM 140255Z AUTO 12003KT 10SM BKN065 BKN090 26/20 A2993 RMK AO2
KDCM 140235Z AUTO 00000KT 10SM BKN065 26/20 A2993 RMK AO2
KDCM 140215Z AUTO 00000KT 10SM SCT065 26/20 A2992 RMK AO2 LTG DSNT SE
KDCM 140155Z AUTO 00000KT 10SM CLR 26/20 A2992 RMK AO2
KDCM 140135Z AUTO 00000KT 10SM CLR 26/20 A2991 RMK AO2
KDCM 140115Z AUTO 00000KT 10SM CLR 26/20 A2990 RMK AO2 LTG DSNT SE
KDCM 140055Z AUTO 14003KT 10SM CLR 27/20 A2990 RMK AO2 LTG DSNT SE
KDCM 140035Z AUTO 12004KT 10SM CLR 27/20 A2990 RMK AO2 LTG DSNT SE